Time;durP1;ratioP1;P1;durP2;ratioP2;P2;SDS_P1;SDS_P2;PMS_P1;PMS_P2;Temp;Humidity;BMP_temperature;BMP_pressure;BME280_temperature;BME280_humidity;BME280_pressure;Samples;Min_cycle;Max_cycle;Signal;HPM_P1;HPM_P2
2022/01/06 00:00:19;;;;;;;4.28;1.40;;;;;;;;;;6246872;28;20436;-66
2022/01/06 00:03:38;;;;;;;3.33;1.30;;;;;;;;;;6246283;28;20062;-64
2022/01/06 00:06:42;;;;;;;5.20;1.83;;;;;;;;;;6245781;28;20050;-65
2022/01/06 00:09:49;;;;;;;3.83;1.23;;;;;;;;;;6247105;28;20325;-65
2022/01/06 00:13:06;;;;;;;5.57;1.40;;;;;;;;;;6246613;28;20472;-64
2022/01/06 00:16:16;;;;;;;2.50;1.27;;;;;;;;;;6247256;28;20061;-65
2022/01/06 00:26:02;;;;;;;2.97;1.23;;;;;;;;;;6246235;28;20124;-64
2022/01/06 00:29:06;;;;;;;5.57;1.58;;;;;;;;;;6246579;28;20053;-65
2022/01/06 00:32:09;;;;;;;2.83;1.50;;;;;;;;;;6245178;28;20175;-66
2022/01/06 00:35:15;;;;;;;6.03;1.45;;;;;;;;;;6246495;28;20045;-65
2022/01/06 00:38:19;;;;;;;2.88;1.25;;;;;;;;;;6245395;28;20056;-65
2022/01/06 00:41:22;;;;;;;5.82;1.50;;;;;;;;;;6244687;28;20412;-65
2022/01/06 00:44:27;;;;;;;2.73;1.30;;;;;;;;;;6246533;28;20049;-66
2022/01/06 00:47:30;;;;;;;3.90;1.50;;;;;;;;;;6245724;28;20053;-64
2022/01/06 00:50:33;;;;;;;5.80;1.58;;;;;;;;;;6244901;28;20052;-64
2022/01/06 00:53:40;;;;;;;5.72;1.95;;;;;;;;;;6246257;28;20057;-64
2022/01/06 00:56:43;;;;;;;3.35;1.33;;;;;;;;;;6245590;28;20045;-64
2022/01/06 00:59:46;;;;;;;3.28;1.40;;;;;;;;;;6245926;28;20499;-64
2022/01/06 01:02:51;;;;;;;4.07;1.83;;;;;;;;;;6245667;28;20056;-65
2022/01/06 01:05:55;;;;;;;4.55;1.83;;;;;;;;;;6244494;28;20049;-66
2022/01/06 01:09:00;;;;;;;4.72;1.50;;;;;;;;;;6244463;28;20053;-65
2022/01/06 01:12:06;;;;;;;3.47;1.63;;;;;;;;;;6245720;28;20056;-65
2022/01/06 01:15:18;;;;;;;5.72;1.67;;;;;;;;;;6245597;28;20065;-65
2022/01/06 01:18:21;;;;;;;4.80;2.40;;;;;;;;;;6244119;28;20052;-64
2022/01/06 01:21:26;;;;;;;4.68;1.48;;;;;;;;;;6245514;28;20172;-66
2022/01/06 01:24:33;;;;;;;7.32;1.50;;;;;;;;;;6243979;28;20049;-66
2022/01/06 01:27:39;;;;;;;3.45;1.45;;;;;;;;;;6244030;28;20041;-65
2022/01/06 01:31:00;;;;;;;3.67;1.50;;;;;;;;;;6244685;28;20468;-65
2022/01/06 01:34:09;;;;;;;2.58;1.83;;;;;;;;;;6245155;28;20137;-67
2022/01/06 01:37:12;;;;;;;2.30;1.40;;;;;;;;;;6245092;28;20049;-66
2022/01/06 01:40:19;;;;;;;2.78;1.42;;;;;;;;;;6244594;28;20135;-64
2022/01/06 01:43:22;;;;;;;2.38;1.60;;;;;;;;;;6244695;28;20041;-65
2022/01/06 01:46:29;;;;;;;3.67;1.75;;;;;;;;;;6245392;28;20048;-65
2022/01/06 01:49:45;;;;;;;4.63;1.40;;;;;;;;;;6244997;28;20052;-65
2022/01/06 01:52:49;;;;;;;5.10;1.30;;;;;;;;;;6244266;28;20049;-65
2022/01/06 01:55:55;;;;;;;4.80;1.52;;;;;;;;;;6245284;28;20120;-65
2022/01/06 01:58:58;;;;;;;5.70;1.98;;;;;;;;;;6244392;28;20084;-65
2022/01/06 02:02:01;;;;;;;5.07;1.90;;;;;;;;;;6244430;28;20064;-66
2022/01/06 02:05:05;;;;;;;5.80;1.77;;;;;;;;;;6244095;28;20061;-66
2022/01/06 02:08:09;;;;;;;4.00;1.77;;;;;;;;;;6242947;28;20041;-65
2022/01/06 02:11:13;;;;;;;4.32;1.58;;;;;;;;;;6244312;28;20048;-66
2022/01/06 02:14:16;;;;;;;4.45;1.77;;;;;;;;;;6244105;28;20045;-66
2022/01/06 02:17:20;;;;;;;3.67;1.67;;;;;;;;;;6244520;28;20649;-65
2022/01/06 02:20:24;;;;;;;5.07;1.50;;;;;;;;;;6242940;28;20046;-64
2022/01/06 02:23:27;;;;;;;3.30;1.63;;;;;;;;;;6242315;28;20132;-65
2022/01/06 02:26:31;;;;;;;6.72;1.77;;;;;;;;;;6242482;28;20447;-65
2022/01/06 02:29:36;;;;;;;4.68;1.60;;;;;;;;;;6244077;28;20056;-64
2022/01/06 02:32:40;;;;;;;3.50;1.40;;;;;;;;;;6244062;28;20045;-64
2022/01/06 02:35:44;;;;;;;4.30;1.85;;;;;;;;;;6241861;28;20115;-66
2022/01/06 02:38:47;;;;;;;3.67;1.70;;;;;;;;;;6243700;28;20068;-65
2022/01/06 02:41:50;;;;;;;5.95;1.60;;;;;;;;;;6243528;28;20042;-64
2022/01/06 02:44:53;;;;;;;5.18;1.77;;;;;;;;;;6241651;28;20045;-66
2022/01/06 02:47:57;;;;;;;3.65;1.45;;;;;;;;;;6243536;28;20053;-66
2022/01/06 02:51:01;;;;;;;4.32;1.60;;;;;;;;;;6241810;28;20488;-65
2022/01/06 02:54:06;;;;;;;5.00;1.58;;;;;;;;;;6242023;28;20415;-64
2022/01/06 02:57:09;;;;;;;8.07;1.67;;;;;;;;;;6242673;28;20061;-65
2022/01/06 03:00:16;;;;;;;3.22;1.67;;;;;;;;;;6241874;28;20665;-65
2022/01/06 03:03:20;;;;;;;5.70;1.70;;;;;;;;;;6241819;28;20099;-66
2022/01/06 03:06:24;;;;;;;3.88;1.42;;;;;;;;;;6241181;28;20050;-65
2022/01/06 03:09:37;;;;;;;5.55;1.90;;;;;;;;;;6243104;28;20052;-64
2022/01/06 03:12:43;;;;;;;3.50;1.58;;;;;;;;;;6242765;28;20124;-64
2022/01/06 03:15:46;;;;;;;2.78;1.20;;;;;;;;;;6241380;28;20049;-65
2022/01/06 03:18:49;;;;;;;6.03;1.60;;;;;;;;;;6242330;28;20123;-64
2022/01/06 03:21:54;;;;;;;6.43;1.60;;;;;;;;;;6241435;28;20056;-65
2022/01/06 03:24:59;;;;;;;5.22;1.92;;;;;;;;;;6242850;28;20068;-64
2022/01/06 03:28:02;;;;;;;3.20;1.52;;;;;;;;;;6240786;28;20085;-64
2022/01/06 03:31:05;;;;;;;3.90;1.75;;;;;;;;;;6242491;28;20167;-65
2022/01/06 03:34:08;;;;;;;6.68;1.80;;;;;;;;;;6241863;28;20057;-65
2022/01/06 03:37:13;;;;;;;3.72;1.30;;;;;;;;;;6242387;28;20069;-65
2022/01/06 03:40:16;;;;;;;2.15;1.40;;;;;;;;;;6240596;28;20065;-65
2022/01/06 03:43:19;;;;;;;5.70;1.80;;;;;;;;;;6242347;28;20046;-65
2022/01/06 03:46:22;;;;;;;3.22;2.00;;;;;;;;;;6241086;28;20549;-65
2022/01/06 03:49:25;;;;;;;2.53;1.33;;;;;;;;;;6240523;28;20526;-66
2022/01/06 03:52:30;;;;;;;5.60;1.70;;;;;;;;;;6242186;28;20072;-65
2022/01/06 03:55:33;;;;;;;8.02;2.85;;;;;;;;;;6242239;28;20081;-66
2022/01/06 03:58:39;;;;;;;3.67;1.88;;;;;;;;;;6240586;28;20046;-65
2022/01/06 04:01:42;;;;;;;3.78;2.08;;;;;;;;;;6242403;28;20199;-66
2022/01/06 04:04:47;;;;;;;4.63;1.70;;;;;;;;;;6240845;28;20049;-65
2022/01/06 04:07:51;;;;;;;4.78;1.63;;;;;;;;;;6240798;28;20495;-65
2022/01/06 04:10:55;;;;;;;3.35;1.67;;;;;;;;;;6241435;28;20057;-65
2022/01/06 04:13:58;;;;;;;4.32;1.50;;;;;;;;;;6242054;28;20492;-66
2022/01/06 04:17:07;;;;;;;5.25;1.85;;;;;;;;;;6242144;28;20049;-65
2022/01/06 04:20:13;;;;;;;5.20;1.67;;;;;;;;;;6241712;28;20045;-65
2022/01/06 04:23:17;;;;;;;6.22;2.03;;;;;;;;;;6241940;28;20076;-65
2022/01/06 04:26:20;;;;;;;3.30;1.33;;;;;;;;;;6241737;28;20540;-65
2022/01/06 04:29:23;;;;;;;4.28;1.42;;;;;;;;;;6241948;28;20408;-65
2022/01/06 04:32:26;;;;;;;2.60;1.50;;;;;;;;;;6239815;28;20500;-65
2022/01/06 04:35:29;;;;;;;4.40;1.63;;;;;;;;;;6241855;28;20052;-65
2022/01/06 04:38:37;;;;;;;5.05;1.52;;;;;;;;;;6241862;28;20163;-65
2022/01/06 04:41:42;;;;;;;3.65;1.60;;;;;;;;;;6241047;28;20054;-65
2022/01/06 04:44:45;;;;;;;4.97;1.50;;;;;;;;;;6244328;28;20052;-65
2022/01/06 04:47:48;;;;;;;3.13;1.30;;;;;;;;;;6246057;28;20415;-65
2022/01/06 04:50:51;;;;;;;3.38;1.23;;;;;;;;;;6246467;28;20400;-65
2022/01/06 04:53:58;;;;;;;5.32;1.60;;;;;;;;;;6245475;28;20041;-66
2022/01/06 04:57:01;;;;;;;4.63;1.80;;;;;;;;;;6246087;28;20041;-65
2022/01/06 05:00:06;;;;;;;3.80;1.58;;;;;;;;;;6246047;28;20057;-65
2022/01/06 05:03:08;;;;;;;5.25;1.60;;;;;;;;;;6244989;28;20046;-65
2022/01/06 05:06:12;;;;;;;7.82;1.50;;;;;;;;;;6246045;28;20052;-65
2022/01/06 05:09:16;;;;;;;2.25;1.35;;;;;;;;;;6244398;28;20052;-67
2022/01/06 05:12:22;;;;;;;3.47;1.67;;;;;;;;;;6244069;28;20479;-65
2022/01/06 05:15:24;;;;;;;5.90;1.48;;;;;;;;;;6243925;28;20380;-67
2022/01/06 05:18:34;;;;;;;4.38;1.88;;;;;;;;;;6245625;28;20403;-65
2022/01/06 05:21:38;;;;;;;2.13;1.25;;;;;;;;;;6245718;28;20049;-65
2022/01/06 05:24:44;;;;;;;4.82;1.45;;;;;;;;;;6244897;28;20053;-66
2022/01/06 05:27:49;;;;;;;6.32;1.50;;;;;;;;;;6245576;28;20046;-66
2022/01/06 05:30:53;;;;;;;3.53;1.45;;;;;;;;;;6245169;28;20053;-65
2022/01/06 05:33:58;;;;;;;3.53;1.40;;;;;;;;;;6245015;28;20468;-65
2022/01/06 05:37:01;;;;;;;3.22;1.63;;;;;;;;;;6244879;28;20484;-65
2022/01/06 05:40:08;;;;;;;4.90;1.63;;;;;;;;;;6245175;28;20060;-65
2022/01/06 05:43:13;;;;;;;3.55;1.70;;;;;;;;;;6245047;28;20408;-65
2022/01/06 05:46:16;;;;;;;5.57;1.58;;;;;;;;;;6244127;28;20049;-65
2022/01/06 05:49:19;;;;;;;3.15;1.38;;;;;;;;;;6244971;28;20488;-65
2022/01/06 05:52:22;;;;;;;6.28;1.80;;;;;;;;;;6244578;28;20034;-65
2022/01/06 05:55:27;;;;;;;3.17;1.42;;;;;;;;;;6243937;28;20080;-65
2022/01/06 05:58:30;;;;;;;3.75;1.75;;;;;;;;;;6243066;28;20124;-66
2022/01/06 06:01:33;;;;;;;4.97;2.10;;;;;;;;;;6244390;28;20048;-64
2022/01/06 06:04:36;;;;;;;7.35;2.03;;;;;;;;;;6244550;28;20042;-66
2022/01/06 06:07:42;;;;;;;;;;;;;;;;;;6243894;28;20095;-64
2022/01/06 06:10:48;;;;;;;2.78;1.73;;;;;;;;;;6244394;28;19921;-64
2022/01/06 06:13:54;;;;;;;7.60;1.95;;;;;;;;;;6244487;28;20045;-67
2022/01/06 06:16:57;;;;;;;7.93;2.42;;;;;;;;;;6242217;28;20125;-65
2022/01/06 06:20:00;;;;;;;8.60;2.80;;;;;;;;;;6244041;28;20045;-64
2022/01/06 06:23:06;;;;;;;2.97;1.80;;;;;;;;;;6243712;28;20050;-67
2022/01/06 06:26:11;;;;;;;3.53;1.77;;;;;;;;;;6243981;28;20041;-66
2022/01/06 06:29:16;;;;;;;5.68;1.67;;;;;;;;;;6241779;28;20811;-65
2022/01/06 06:32:19;;;;;;;5.88;2.13;;;;;;;;;;6243883;28;20053;-65
2022/01/06 06:35:22;;;;;;;3.67;1.67;;;;;;;;;;6243809;28;20137;-65
2022/01/06 06:38:25;;;;;;;9.45;3.13;;;;;;;;;;6242851;28;20045;-65
2022/01/06 06:41:29;;;;;;;9.10;2.30;;;;;;;;;;6242097;28;20060;-67
2022/01/06 06:44:32;;;;;;;9.15;2.42;;;;;;;;;;6243086;28;20480;-66
2022/01/06 06:47:35;;;;;;;5.53;1.92;;;;;;;;;;6243896;28;20132;-66
2022/01/06 06:50:39;;;;;;;6.38;2.67;;;;;;;;;;6242805;28;20049;-67
2022/01/06 06:53:42;;;;;;;5.13;2.03;;;;;;;;;;6243066;28;20124;-66
2022/01/06 06:56:46;;;;;;;4.82;2.00;;;;;;;;;;6243201;28;20419;-67
2022/01/06 06:59:49;;;;;;;7.13;2.10;;;;;;;;;;6242378;28;20484;-64
2022/01/06 07:02:52;;;;;;;6.03;2.85;;;;;;;;;;6243157;28;20049;-64
2022/01/06 07:05:55;;;;;;;7.78;1.80;;;;;;;;;;6241250;28;20049;-64
2022/01/06 07:08:58;;;;;;;4.63;2.20;;;;;;;;;;6241326;28;20049;-66
2022/01/06 07:12:02;;;;;;;8.30;3.40;;;;;;;;;;6242779;28;20520;-65
2022/01/06 07:15:07;;;;;;;5.32;1.80;;;;;;;;;;6242517;28;20553;-65
2022/01/06 07:18:10;;;;;;;3.17;1.45;;;;;;;;;;6242890;28;20132;-65
2022/01/06 07:21:19;;;;;;;10.15;2.20;;;;;;;;;;6241881;28;20045;-64
2022/01/06 07:24:22;;;;;;;7.65;2.25;;;;;;;;;;6243476;28;20045;-64
2022/01/06 07:27:26;;;;;;;10.20;2.25;;;;;;;;;;6242589;28;20045;-65
2022/01/06 07:30:33;;;;;;;4.18;1.75;;;;;;;;;;6241099;28;20077;-65
2022/01/06 07:33:36;;;;;;;5.50;2.15;;;;;;;;;;6242432;28;20550;-66
2022/01/06 07:36:39;;;;;;;6.80;3.10;;;;;;;;;;6242153;28;20067;-64
2022/01/06 07:39:42;;;;;;;7.68;2.10;;;;;;;;;;6242225;28;20057;-65
2022/01/06 07:42:46;;;;;;;3.70;2.42;;;;;;;;;;6241761;28;20049;-66
2022/01/06 07:45:49;;;;;;;8.15;2.40;;;;;;;;;;6240964;28;20056;-66
2022/01/06 07:48:57;;;;;;;6.75;2.30;;;;;;;;;;6242411;28;20047;-66
2022/01/06 07:52:00;;;;;;;3.80;1.73;;;;;;;;;;6240334;28;20045;-65
2022/01/06 07:55:04;;;;;;;3.30;2.05;;;;;;;;;;6242246;28;20056;-64
2022/01/06 07:58:08;;;;;;;6.18;2.28;;;;;;;;;;6240749;28;20516;-65
2022/01/06 08:01:11;;;;;;;5.15;2.10;;;;;;;;;;6242519;28;20046;-65
2022/01/06 08:04:14;;;;;;;5.18;2.00;;;;;;;;;;6241508;28;20450;-65
2022/01/06 08:07:17;;;;;;;11.60;2.50;;;;;;;;;;6240819;28;20083;-64
2022/01/06 08:10:20;;;;;;;7.78;2.10;;;;;;;;;;6242188;28;20041;-64
2022/01/06 08:13:24;;;;;;;3.47;1.80;;;;;;;;;;6239838;28;20476;-66
2022/01/06 08:16:27;;;;;;;6.25;1.95;;;;;;;;;;6240823;28;20046;-67
2022/01/06 08:19:30;;;;;;;6.28;2.15;;;;;;;;;;6245301;28;20455;-65
2022/01/06 08:22:35;;;;;;;6.88;2.10;;;;;;;;;;6246350;28;20500;-65
2022/01/06 08:25:38;;;;;;;2.58;1.70;;;;;;;;;;6246687;28;20041;-66
2022/01/06 08:28:46;;;;;;;5.65;2.22;;;;;;;;;;6247146;28;20049;-65
2022/01/06 08:31:49;;;;;;;5.90;2.33;;;;;;;;;;6245759;28;20045;-64
2022/01/06 08:34:55;;;;;;;9.02;2.40;;;;;;;;;;6246010;28;20037;-67
2022/01/06 08:38:00;;;;;;;;;;;;;;;;;;6245892;28;20067;-67
2022/01/06 08:41:03;;;;;;;10.30;2.10;;;;;;;;;;6246205;28;19928;-65
2022/01/06 08:44:08;;;;;;;7.25;2.08;;;;;;;;;;6246055;28;20047;-66
2022/01/06 08:47:11;;;;;;;4.53;1.70;;;;;;;;;;6246157;28;20055;-66
2022/01/06 08:50:15;;;;;;;5.13;2.05;;;;;;;;;;6246017;28;20124;-65
2022/01/06 08:53:18;;;;;;;6.43;2.15;;;;;;;;;;6246472;28;20128;-65
2022/01/06 08:56:21;;;;;;;8.70;1.92;;;;;;;;;;6243914;28;20045;-66
2022/01/06 08:59:27;;;;;;;6.47;1.80;;;;;;;;;;6246313;28;20049;-67
2022/01/06 09:02:30;;;;;;;5.85;1.83;;;;;;;;;;6245975;28;20041;-65
2022/01/06 09:05:33;;;;;;;8.85;2.28;;;;;;;;;;6243891;28;20045;-64
2022/01/06 09:08:36;;;;;;;3.17;1.90;;;;;;;;;;6245974;28;20056;-66
2022/01/06 09:11:39;;;;;;;7.05;1.95;;;;;;;;;;6245898;28;20048;-67
2022/01/06 09:14:43;;;;;;;5.63;1.98;;;;;;;;;;6244096;28;20130;-65
2022/01/06 09:17:46;;;;;;;5.45;1.95;;;;;;;;;;6243848;28;20480;-64
2022/01/06 09:20:49;;;;;;;5.18;2.47;;;;;;;;;;6244517;28;20125;-66
2022/01/06 09:23:53;;;;;;;4.57;1.80;;;;;;;;;;6245569;28;20056;-66
2022/01/06 09:26:58;;;;;;;;;;;;;;;;;;6244166;28;20076;-66
2022/01/06 09:30:04;;;;;;;4.95;1.90;;;;;;;;;;6245186;28;19928;-65
2022/01/06 09:33:07;;;;;;;9.30;2.17;;;;;;;;;;6243563;28;20553;-67
2022/01/06 09:36:10;;;;;;;5.63;1.55;;;;;;;;;;6243452;28;20404;-65
2022/01/06 09:39:15;;;;;;;4.17;1.80;;;;;;;;;;6244880;28;20049;-66
2022/01/06 09:42:18;;;;;;;7.97;1.80;;;;;;;;;;6244912;28;20450;-65
2022/01/06 09:45:24;;;;;;;3.63;1.90;;;;;;;;;;6244997;28;20047;-66
2022/01/06 09:48:30;;;;;;;5.43;2.25;;;;;;;;;;6242836;28;20048;-66
2022/01/06 09:51:32;;;;;;;3.00;1.67;;;;;;;;;;6245100;28;20218;-66
2022/01/06 09:54:36;;;;;;;2.70;1.63;;;;;;;;;;6244552;28;20099;-66
2022/01/06 09:57:49;;;;;;;4.53;1.52;;;;;;;;;;6244230;28;20195;-66
2022/01/06 10:00:55;;;;;;;4.90;1.67;;;;;;;;;;6244308;28;20049;-66
2022/01/06 10:04:00;;;;;;;2.17;1.58;;;;;;;;;;6244936;28;20049;-66
2022/01/06 10:07:06;;;;;;;8.45;1.98;;;;;;;;;;6244942;28;20049;-66
2022/01/06 10:10:11;;;;;;;3.80;1.92;;;;;;;;;;6243492;28;20186;-66
2022/01/06 10:13:16;;;;;;;13.50;2.53;;;;;;;;;;6245198;28;20033;-66
2022/01/06 10:16:21;;;;;;;3.35;1.42;;;;;;;;;;6242760;28;20302;-66
2022/01/06 10:19:26;;;;;;;2.63;1.65;;;;;;;;;;6243909;28;20045;-66
2022/01/06 10:22:29;;;;;;;3.83;1.80;;;;;;;;;;6242377;28;20049;-65
2022/01/06 10:25:38;;;;;;;9.40;2.85;;;;;;;;;;6243943;28;20087;-66
2022/01/06 10:28:54;;;;;;;5.65;1.85;;;;;;;;;;6242579;28;20080;-66
2022/01/06 10:32:06;;;;;;;3.90;1.55;;;;;;;;;;6242994;28;20045;-66
2022/01/06 10:35:10;;;;;;;5.28;1.77;;;;;;;;;;6243835;28;20056;-65
2022/01/06 10:38:25;;;;;;;5.28;1.92;;;;;;;;;;6242412;28;20041;-66
2022/01/06 10:41:29;;;;;;;5.20;2.10;;;;;;;;;;6241332;28;20144;-65
2022/01/06 10:44:32;;;;;;;8.90;2.45;;;;;;;;;;6243115;28;20076;-65
2022/01/06 10:47:37;;;;;;;9.40;2.00;;;;;;;;;;6243504;28;20519;-65
2022/01/06 10:50:42;;;;;;;6.90;2.03;;;;;;;;;;6243463;28;20048;-65
2022/01/06 10:53:48;;;;;;;5.03;1.80;;;;;;;;;;6242716;28;20057;-66
2022/01/06 10:56:59;;;;;;;4.15;3.15;;;;;;;;;;6243017;28;20053;-67
2022/01/06 11:00:03;;;;;;;3.60;1.80;;;;;;;;;;6242946;28;20141;-66
2022/01/06 11:03:12;;;;;;;11.65;2.10;;;;;;;;;;6243245;28;20407;-66
2022/01/06 11:06:15;;;;;;;3.45;2.08;;;;;;;;;;6242733;28;20049;-64
2022/01/06 11:09:20;;;;;;;7.23;2.00;;;;;;;;;;6243266;28;20045;-66
2022/01/06 11:12:31;;;;;;;7.97;2.70;;;;;;;;;;6241563;28;20648;-64
2022/01/06 11:15:34;;;;;;;4.80;2.05;;;;;;;;;;6242646;28;20045;-66
2022/01/06 11:18:40;;;;;;;4.40;2.25;;;;;;;;;;6241484;28;20124;-67
2022/01/06 11:21:47;;;;;;;5.55;2.25;;;;;;;;;;6241329;28;20048;-64
2022/01/06 11:24:52;;;;;;;8.65;2.92;;;;;;;;;;6243111;28;20049;-65
2022/01/06 11:28:01;;;;;;;11.90;2.42;;;;;;;;;;6241850;28;20045;-67
2022/01/06 11:31:13;;;;;;;6.65;2.08;;;;;;;;;;6242889;28;20051;-67
2022/01/06 11:34:23;;;;;;;3.67;1.83;;;;;;;;;;6241989;28;20041;-65
2022/01/06 11:37:26;;;;;;;5.60;1.92;;;;;;;;;;6240750;28;20048;-66
2022/01/06 11:40:30;;;;;;;3.70;2.30;;;;;;;;;;6240592;28;20450;-67
2022/01/06 11:43:35;;;;;;;6.03;2.08;;;;;;;;;;6242345;28;20048;-67
2022/01/06 11:46:42;;;;;;;3.47;2.13;;;;;;;;;;6241263;28;20050;-66
2022/01/06 11:49:46;;;;;;;5.05;1.70;;;;;;;;;;6241649;28;20435;-67
2022/01/06 11:52:50;;;;;;;6.65;2.03;;;;;;;;;;6243482;28;20042;-65
2022/01/06 11:55:56;;;;;;;4.68;1.95;;;;;;;;;;6250254;28;20049;-67
2022/01/06 11:59:00;;;;;;;5.25;1.88;;;;;;;;;;6249079;28;20045;-65
2022/01/06 12:02:03;;;;;;;7.13;2.20;;;;;;;;;;6248939;28;20044;-65
2022/01/06 12:05:08;;;;;;;3.97;2.03;;;;;;;;;;6248920;28;20550;-65
2022/01/06 12:08:11;;;;;;;3.95;2.00;;;;;;;;;;6249048;28;20382;-67
2022/01/06 12:11:19;;;;;;;6.80;1.98;;;;;;;;;;6248131;28;20052;-67
2022/01/06 12:14:26;;;;;;;4.20;1.80;;;;;;;;;;6250585;28;20502;-67
2022/01/06 12:17:29;;;;;;;3.80;1.60;;;;;;;;;;6248616;28;20497;-67
2022/01/06 12:20:33;;;;;;;3.22;2.03;;;;;;;;;;6248488;28;20041;-67
2022/01/06 12:23:36;;;;;;;4.47;2.17;;;;;;;;;;6248720;28;20553;-67
2022/01/06 12:26:41;;;;;;;4.80;1.90;;;;;;;;;;6250862;28;20053;-66
2022/01/06 12:29:44;;;;;;;6.22;2.00;;;;;;;;;;6248840;28;20041;-65
2022/01/06 12:32:57;;;;;;;4.95;2.28;;;;;;;;;;6249219;28;20056;-65
2022/01/06 12:36:05;;;;;;;3.85;2.10;;;;;;;;;;6250325;28;20042;-67
2022/01/06 12:39:09;;;;;;;5.10;1.88;;;;;;;;;;6249638;28;20124;-65
2022/01/06 12:42:12;;;;;;;5.20;1.90;;;;;;;;;;6249596;28;20469;-66
2022/01/06 12:45:17;;;;;;;4.00;1.92;;;;;;;;;;6248320;28;20348;-67
2022/01/06 12:48:28;;;;;;;6.97;1.80;;;;;;;;;;6249837;28;20131;-65
2022/01/06 12:51:32;;;;;;;6.13;1.92;;;;;;;;;;6248734;28;20041;-66
2022/01/06 12:54:37;;;;;;;5.82;1.85;;;;;;;;;;6248943;28;20511;-66
2022/01/06 12:57:40;;;;;;;3.97;1.98;;;;;;;;;;6250055;28;20087;-67
2022/01/06 13:00:52;;;;;;;5.38;2.25;;;;;;;;;;6249554;28;20503;-66
2022/01/06 13:04:00;;;;;;;9.75;2.15;;;;;;;;;;6248511;28;20173;-66
2022/01/06 13:07:05;;;;;;;8.30;3.42;;;;;;;;;;6245198;28;20042;-66
2022/01/06 13:10:08;;;;;;;6.03;1.90;;;;;;;;;;6246597;28;20191;-66
2022/01/06 13:13:12;;;;;;;6.85;1.80;;;;;;;;;;6244174;28;20287;-66
2022/01/06 13:16:17;;;;;;;5.05;1.60;;;;;;;;;;6243683;28;20060;-66
2022/01/06 13:19:25;;;;;;;;;;;;;;;;;;6244876;28;20049;-66
2022/01/06 13:22:48;;;;;;;8.13;2.42;;;;;;;;;;6245354;28;20363;-66
2022/01/06 13:25:51;;;;;;;6.70;2.05;;;;;;;;;;6243969;28;20495;-67
2022/01/06 13:28:57;;;;;;;8.52;2.05;;;;;;;;;;6243078;28;20046;-66
2022/01/06 13:32:08;;;;;;;8.98;2.75;;;;;;;;;;6245387;28;20103;-66
2022/01/06 13:35:11;;;;;;;8.10;1.75;;;;;;;;;;6243809;28;20045;-66
2022/01/06 13:38:19;;;;;;;8.88;2.00;;;;;;;;;;6244514;28;20092;-66
2022/01/06 13:41:25;;;;;;;6.10;1.80;;;;;;;;;;6244908;28;20087;-67
2022/01/06 13:44:28;;;;;;;6.43;1.90;;;;;;;;;;6244975;28;20046;-66
2022/01/06 13:47:46;;;;;;;6.90;1.80;;;;;;;;;;6245155;28;20053;-66
2022/01/06 13:51:07;;;;;;;4.38;2.25;;;;;;;;;;6243880;28;20487;-66
2022/01/06 13:54:17;;;;;;;5.60;2.00;;;;;;;;;;6244891;28;20053;-66
2022/01/06 13:57:20;;;;;;;5.43;1.90;;;;;;;;;;6244633;28;20056;-67
2022/01/06 14:00:23;;;;;;;4.43;1.60;;;;;;;;;;6244378;28;20411;-66
2022/01/06 14:03:31;;;;;;;7.80;1.92;;;;;;;;;;6242765;28;20060;-66
2022/01/06 14:06:34;;;;;;;4.80;1.80;;;;;;;;;;6243423;28;20055;-66
2022/01/06 14:09:39;;;;;;;6.22;1.67;;;;;;;;;;6244143;28;20049;-66
2022/01/06 14:12:41;;;;;;;4.15;1.50;;;;;;;;;;6243720;28;20049;-66
2022/01/06 14:15:45;;;;;;;4.93;1.40;;;;;;;;;;6244177;28;20052;-65
2022/01/06 14:18:48;;;;;;;3.55;1.58;;;;;;;;;;6243694;28;20492;-67
2022/01/06 14:21:51;;;;;;;5.60;1.58;;;;;;;;;;6243779;28;20053;-65
2022/01/06 14:24:56;;;;;;;5.68;1.70;;;;;;;;;;6243726;28;20103;-66
2022/01/06 14:27:59;;;;;;;5.53;1.77;;;;;;;;;;6243857;28;20049;-66
2022/01/06 14:31:04;;;;;;;3.17;1.65;;;;;;;;;;6243842;28;20046;-65
2022/01/06 14:34:07;;;;;;;8.82;1.90;;;;;;;;;;6243208;28;20472;-66
2022/01/06 14:37:11;;;;;;;3.70;1.48;;;;;;;;;;6242544;28;20037;-66
2022/01/06 14:40:15;;;;;;;3.67;1.38;;;;;;;;;;6243369;28;20056;-66
2022/01/06 14:43:38;;;;;;;2.90;1.40;;;;;;;;;;6243294;28;20049;-66
2022/01/06 14:46:43;;;;;;;5.97;2.22;;;;;;;;;;6241557;28;20561;-66
2022/01/06 14:49:48;;;;;;;35.13;16.48;;;;;;;;;;6243477;28;20041;-66
2022/01/06 14:52:55;;;;;;;3.85;1.90;;;;;;;;;;6243479;28;20056;-66
2022/01/06 14:56:00;;;;;;;3.03;1.65;;;;;;;;;;6242669;28;20051;-66
2022/01/06 14:59:05;;;;;;;3.35;1.60;;;;;;;;;;6243461;28;20049;-66
2022/01/06 15:02:08;;;;;;;5.43;1.40;;;;;;;;;;6242912;28;20045;-66
2022/01/06 15:05:12;;;;;;;6.35;1.90;;;;;;;;;;6242772;28;20491;-66
2022/01/06 15:08:15;;;;;;;5.88;1.58;;;;;;;;;;6258172;28;20513;-66
2022/01/06 15:11:22;;;;;;;4.70;2.55;;;;;;;;;;6243064;28;20045;-66
2022/01/06 15:14:24;;;;;;;6.07;1.92;;;;;;;;;;6241510;28;20047;-66
2022/01/06 15:17:30;;;;;;;3.58;1.33;;;;;;;;;;6241965;28;20049;-67
2022/01/06 15:20:33;;;;;;;2.90;1.55;;;;;;;;;;6242896;28;20056;-66
2022/01/06 15:23:36;;;;;;;4.82;2.33;;;;;;;;;;6242618;28;20503;-66
2022/01/06 15:26:54;;;;;;;3.33;1.50;;;;;;;;;;6241075;28;20046;-66
2022/01/06 15:29:58;;;;;;;4.75;1.50;;;;;;;;;;6241672;28;20057;-67
2022/01/06 15:33:03;;;;;;;6.05;1.50;;;;;;;;;;6241375;28;20121;-67
2022/01/06 15:36:08;;;;;;;4.53;2.25;;;;;;;;;;6241104;28;20521;-66
2022/01/06 15:39:14;;;;;;;4.82;1.90;;;;;;;;;;6241528;28;20045;-66
2022/01/06 15:42:18;;;;;;;3.90;1.63;;;;;;;;;;6241676;28;20057;-66
2022/01/06 15:45:22;;;;;;;3.13;1.50;;;;;;;;;;6242147;28;20075;-66
2022/01/06 15:48:30;;;;;;;5.90;1.55;;;;;;;;;;6242438;28;20125;-66
2022/01/06 15:51:33;;;;;;;5.32;1.65;;;;;;;;;;6242218;28;20496;-66
2022/01/06 15:54:41;;;;;;;2.40;1.65;;;;;;;;;;6242250;28;20045;-66
2022/01/06 15:57:45;;;;;;;4.38;1.50;;;;;;;;;;6241887;28;20041;-66
2022/01/06 16:07:26;;;;;;;3.35;2.00;;;;;;;;;;6242214;28;20098;-66
2022/01/06 16:10:30;;;;;;;3.75;1.60;;;;;;;;;;6242163;28;20052;-66
2022/01/06 16:13:35;;;;;;;3.55;1.83;;;;;;;;;;6239873;28;20514;-66
2022/01/06 16:16:41;;;;;;;2.67;1.75;;;;;;;;;;6242299;28;20041;-66
2022/01/06 16:19:44;;;;;;;3.92;1.58;;;;;;;;;;6241822;28;20045;-66
2022/01/06 16:22:47;;;;;;;3.45;1.65;;;;;;;;;;6240104;28;20049;-66
2022/01/06 16:25:50;;;;;;;4.20;1.90;;;;;;;;;;6241901;28;20129;-65
2022/01/06 16:28:55;;;;;;;2.35;1.45;;;;;;;;;;6240420;28;20056;-66
2022/01/06 16:32:06;;;;;;;8.60;2.60;;;;;;;;;;6240380;28;20050;-65
2022/01/06 16:35:09;;;;;;;5.88;2.35;;;;;;;;;;6241149;28;20355;-65
2022/01/06 16:38:14;;;;;;;;;;;;;;;;;;6242496;28;20053;-65
2022/01/06 16:41:18;;;;;;;3.00;1.52;;;;;;;;;;6244443;28;19921;-65
2022/01/06 16:44:27;;;;;;;5.68;1.55;;;;;;;;;;6244644;28;20080;-65
2022/01/06 16:47:31;;;;;;;2.53;1.45;;;;;;;;;;6244706;28;20798;-65
2022/01/06 16:50:35;;;;;;;4.53;1.95;;;;;;;;;;6246565;28;20487;-65
2022/01/06 16:53:38;;;;;;;2.25;1.17;;;;;;;;;;6246125;28;20516;-65
2022/01/06 16:56:41;;;;;;;2.05;1.45;;;;;;;;;;6245487;28;20518;-65
2022/01/06 16:59:46;;;;;;;3.58;2.00;;;;;;;;;;6246085;28;20049;-64
2022/01/06 17:02:51;;;;;;;2.30;1.40;;;;;;;;;;6244410;28;20072;-66
2022/01/06 17:05:54;;;;;;;2.83;1.52;;;;;;;;;;6245075;28;20045;-67
2022/01/06 17:08:57;;;;;;;2.65;1.17;;;;;;;;;;6244367;28;20120;-65
2022/01/06 17:12:00;;;;;;;4.50;1.50;;;;;;;;;;6245430;28;20045;-65
2022/01/06 17:15:06;;;;;;;3.63;1.38;;;;;;;;;;6243982;28;20535;-66
2022/01/06 17:18:12;;;;;;;3.83;1.40;;;;;;;;;;6245413;28;20476;-65
2022/01/06 17:21:15;;;;;;;2.05;1.40;;;;;;;;;;6245662;28;20052;-66
2022/01/06 17:24:21;;;;;;;2.65;1.63;;;;;;;;;;6245333;28;20125;-65
2022/01/06 17:27:24;;;;;;;2.40;1.30;;;;;;;;;;6244903;28;20053;-65
2022/01/06 17:30:28;;;;;;;2.95;1.63;;;;;;;;;;6244142;28;20049;-65
2022/01/06 17:33:31;;;;;;;2.20;1.33;;;;;;;;;;6245084;28;20100;-64
2022/01/06 17:36:35;;;;;;;3.47;1.38;;;;;;;;;;6244951;28;20057;-65
2022/01/06 17:39:38;;;;;;;4.75;1.30;;;;;;;;;;6244506;28;20049;-65
2022/01/06 17:42:45;;;;;;;3.30;1.15;;;;;;;;;;6245142;28;20052;-65
2022/01/06 17:45:51;;;;;;;;;;;;;;;;;;6245610;28;20060;-65
2022/01/06 17:48:55;;;;;;;2.63;1.05;;;;;;;;;;6244206;28;20314;-65
2022/01/06 17:51:59;;;;;;;2.88;1.35;;;;;;;;;;6245656;28;20068;-65
2022/01/06 17:55:05;;;;;;;3.70;2.03;;;;;;;;;;6243381;28;20060;-65
2022/01/06 17:58:09;;;;;;;3.10;1.17;;;;;;;;;;6244307;28;20493;-65
2022/01/06 18:01:18;;;;;;;3.83;1.50;;;;;;;;;;6242908;28;20510;-65
2022/01/06 18:04:23;;;;;;;4.28;1.65;;;;;;;;;;6244512;28;20069;-65
2022/01/06 18:07:38;;;;;;;6.38;1.50;;;;;;;;;;6244770;28;20041;-65
2022/01/06 18:14:05;;;;;;;2.45;1.30;;;;;;;;;;6244263;28;20372;-65
2022/01/06 18:17:10;;;;;;;2.38;1.23;;;;;;;;;;6244229;28;20046;-63
2022/01/06 18:20:17;;;;;;;2.17;1.40;;;;;;;;;;6243122;28;20112;-65
2022/01/06 18:23:20;;;;;;;4.50;1.50;;;;;;;;;;6243560;28;20084;-67
2022/01/06 18:26:23;;;;;;;2.83;1.40;;;;;;;;;;6244363;28;20053;-65
2022/01/06 18:29:27;;;;;;;4.10;1.50;;;;;;;;;;6243822;28;20563;-65
2022/01/06 18:32:30;;;;;;;2.88;1.50;;;;;;;;;;6243325;28;20049;-65
2022/01/06 18:35:35;;;;;;;2.55;1.67;;;;;;;;;;6243849;28;20038;-65
2022/01/06 18:38:40;;;;;;;3.40;1.80;;;;;;;;;;6243548;28;20123;-65
2022/01/06 18:41:46;;;;;;;2.80;1.48;;;;;;;;;;6243359;28;20050;-66
2022/01/06 18:44:50;;;;;;;4.32;1.73;;;;;;;;;;6243449;28;20077;-66
2022/01/06 18:47:54;;;;;;;4.63;1.60;;;;;;;;;;6242254;28;20077;-65